Terminal Aerodrome Forecast
Issued by NWS

Home | Current Version | Previous Version | Text Only | Print | Product List | Glossary On
Versions: 1 2 3 4 5 6 7 8 9 10 11 12 13
000
FTUS46 KPDT 261725
TAFYKM
TAF
KYKM 261725Z 2618/2718 13004KT P6SM FEW250
     FM270000 19004KT P6SM SKC
     FM270400 27007KT P6SM SKC=

USA.gov is the U.S. government's official web portal to all federal, state and local government web resources and services.